Time;durP1;ratioP1;P1;durP2;ratioP2;P2;SDS_P1;SDS_P2;PMS_P1;PMS_P2;Temp;Humidity;BMP_temperature;BMP_pressure;BME280_temperature;BME280_humidity;BME280_pressure;Samples;Min_cycle;Max_cycle;Signal;HPM_P1;HPM_P2
2022/03/19 00:01:27;;;;;;;;;;;21.80;31.10;;;;;;484645;246;1140;-40
2022/03/19 00:03:29;;;;;;;;;;;21.80;31.10;;;;;;484733;246;968;-39
2022/03/19 00:05:30;;;;;;;;;;;21.80;31.10;;;;;;484668;246;1245;-39
2022/03/19 00:07:32;;;;;;;;;;;21.80;31.10;;;;;;484246;246;1179;-40
2022/03/19 00:09:33;;;;;;;;;;;21.80;31.00;;;;;;484275;246;2406;-40
2022/03/19 00:11:34;;;;;;;;;;;21.80;31.10;;;;;;484431;246;1221;-40
2022/03/19 00:13:36;;;;;;;;;;;21.80;31.10;;;;;;484585;246;1035;-40
2022/03/19 00:15:37;;;;;;;;;;;21.80;31.00;;;;;;484641;246;2129;-39
2022/03/19 00:17:39;;;;;;;;;;;21.80;31.10;;;;;;484249;246;1417;-40
2022/03/19 00:19:40;;;;;;;;;;;21.80;31.10;;;;;;484784;246;1006;-39
2022/03/19 00:21:41;;;;;;;;;;;21.80;31.10;;;;;;484446;246;1249;-39
2022/03/19 00:23:42;;;;;;;;;;;21.80;31.10;;;;;;484292;246;1072;-40
2022/03/19 00:25:44;;;;;;;;;;;21.80;31.10;;;;;;484739;246;1089;-40
2022/03/19 00:27:45;;;;;;;;;;;21.80;31.10;;;;;;484392;246;1135;-39
2022/03/19 00:29:46;;;;;;;;;;;21.80;31.10;;;;;;484348;246;1094;-39
2022/03/19 00:31:48;;;;;;;;;;;21.80;31.10;;;;;;484327;246;1085;-40
2022/03/19 00:33:49;;;;;;;;;;;21.80;31.10;;;;;;484288;246;1242;-39
2022/03/19 00:35:50;;;;;;;;;;;21.80;31.10;;;;;;484653;246;2208;-40
2022/03/19 00:37:53;;;;;;;;;;;21.80;31.10;;;;;;484518;246;1262;-40
2022/03/19 00:39:53;;;;;;;;;;;21.80;31.20;;;;;;484539;246;2393;-40
2022/03/19 00:41:54;;;;;;;;;;;21.80;31.20;;;;;;484272;246;1555;-39
2022/03/19 00:43:56;;;;;;;;;;;21.70;31.20;;;;;;484791;246;1089;-39
2022/03/19 00:45:57;;;;;;;;;;;21.80;31.20;;;;;;484565;246;1149;-39
2022/03/19 00:47:58;;;;;;;;;;;21.70;31.20;;;;;;484283;246;1304;-39
2022/03/19 00:50:00;;;;;;;;;;;21.70;31.10;;;;;;484639;245;1350;-40
2022/03/19 00:52:01;;;;;;;;;;;21.80;31.20;;;;;;484385;246;1251;-39
2022/03/19 00:54:02;;;;;;;;;;;21.70;31.20;;;;;;484292;246;2196;-39
2022/03/19 00:56:04;;;;;;;;;;;21.80;31.20;;;;;;484595;246;1196;-40
2022/03/19 00:58:05;;;;;;;;;;;21.80;31.20;;;;;;484736;246;1080;-39
2022/03/19 01:00:06;;;;;;;;;;;21.80;31.20;;;;;;484748;246;974;-40
2022/03/19 01:02:07;;;;;;;;;;;21.80;31.10;;;;;;484591;246;1203;-39
2022/03/19 01:04:09;;;;;;;;;;;21.70;31.10;;;;;;484776;246;1064;-40
2022/03/19 01:06:10;;;;;;;;;;;21.70;31.10;;;;;;484363;246;1298;-40
2022/03/19 01:08:12;;;;;;;;;;;21.80;31.10;;;;;;484728;246;1083;-39
2022/03/19 01:10:13;;;;;;;;;;;21.80;31.10;;;;;;484296;246;1066;-40
2022/03/19 01:12:14;;;;;;;;;;;21.80;31.10;;;;;;484346;246;1340;-39
2022/03/19 01:14:16;;;;;;;;;;;21.80;31.10;;;;;;484445;246;2121;-40
2022/03/19 01:16:18;;;;;;;;;;;21.80;31.10;;;;;;484737;246;1106;-39
2022/03/19 01:18:18;;;;;;;;;;;21.70;31.10;;;;;;484251;246;2361;-39
2022/03/19 01:20:20;;;;;;;;;;;21.70;31.10;;;;;;484296;246;1107;-40
2022/03/19 01:22:22;;;;;;;;;;;21.80;31.20;;;;;;484376;246;1201;-40
2022/03/19 01:24:23;;;;;;;;;;;21.80;31.20;;;;;;484783;246;966;-40
2022/03/19 01:26:24;;;;;;;;;;;21.80;31.10;;;;;;484531;246;1290;-40
2022/03/19 01:28:26;;;;;;;;;;;21.80;31.10;;;;;;484749;246;1077;-40
2022/03/19 01:30:27;;;;;;;;;;;21.80;31.10;;;;;;484453;246;1158;-40
2022/03/19 01:32:28;;;;;;;;;;;21.70;31.20;;;;;;484692;246;1150;-39
2022/03/19 01:34:30;;;;;;;;;;;21.70;31.20;;;;;;484757;246;2104;-39
2022/03/19 01:36:31;;;;;;;;;;;21.80;31.20;;;;;;484201;246;1221;-40
2022/03/19 01:38:32;;;;;;;;;;;21.80;31.20;;;;;;484725;246;1141;-40
2022/03/19 01:40:34;;;;;;;;;;;21.70;31.20;;;;;;484430;246;1436;-39
2022/03/19 01:42:35;;;;;;;;;;;21.80;31.20;;;;;;484384;246;1254;-40
2022/03/19 01:44:36;;;;;;;;;;;21.80;31.20;;;;;;484660;246;1095;-40
2022/03/19 01:46:38;;;;;;;;;;;21.80;31.20;;;;;;484712;246;1287;-39
2022/03/19 01:48:39;;;;;;;;;;;21.70;31.10;;;;;;484481;246;1094;-39
2022/03/19 01:50:40;;;;;;;;;;;21.70;31.20;;;;;;484409;246;1423;-40
2022/03/19 01:52:42;;;;;;;;;;;21.80;31.20;;;;;;484417;246;1165;-39
2022/03/19 01:54:43;;;;;;;;;;;21.70;31.10;;;;;;484572;246;2125;-39
2022/03/19 01:56:44;;;;;;;;;;;21.70;31.20;;;;;;484272;246;1410;-40
2022/03/19 01:58:45;;;;;;;;;;;21.80;31.20;;;;;;484300;246;1055;-40
2022/03/19 02:00:47;;;;;;;;;;;21.80;31.20;;;;;;484706;246;1142;-40
2022/03/19 02:02:48;;;;;;;;;;;21.80;31.10;;;;;;484368;246;995;-39
2022/03/19 02:04:49;;;;;;;;;;;21.80;31.20;;;;;;484601;246;1000;-39
2022/03/19 02:06:51;;;;;;;;;;;21.80;31.20;;;;;;484377;246;1233;-40
2022/03/19 02:08:52;;;;;;;;;;;21.80;31.10;;;;;;484293;246;1091;-40
2022/03/19 02:10:53;;;;;;;;;;;21.70;31.10;;;;;;484353;246;1373;-40
2022/03/19 02:12:55;;;;;;;;;;;21.80;31.10;;;;;;484535;246;1206;-39
2022/03/19 02:14:57;;;;;;;;;;;21.70;31.10;;;;;;484775;246;2192;-40
2022/03/19 02:16:57;;;;;;;;;;;21.80;31.20;;;;;;484692;246;1354;-40
2022/03/19 02:18:59;;;;;;;;;;;21.70;31.20;;;;;;484331;246;1097;-39
2022/03/19 02:21:01;;;;;;;;;;;21.70;31.20;;;;;;484749;246;1113;-39
2022/03/19 02:25:36;;;;;;;;;;;21.70;31.20;;;;;;484328;246;1072;-40
2022/03/19 02:27:37;;;;;;;;;;;21.70;31.20;;;;;;484299;246;1225;-39
2022/03/19 02:29:38;;;;;;;;;;;21.70;31.10;;;;;;484691;246;1068;-40
2022/03/19 02:31:40;;;;;;;;;;;21.70;31.20;;;;;;484709;246;1179;-40
2022/03/19 02:33:41;;;;;;;;;;;21.80;31.20;;;;;;484334;246;1110;-39
2022/03/19 02:35:43;;;;;;;;;;;21.70;31.20;;;;;;484299;246;2210;-40
2022/03/19 02:37:44;;;;;;;;;;;21.70;31.20;;;;;;484524;246;1151;-40
2022/03/19 02:39:45;;;;;;;;;;;21.70;31.20;;;;;;484741;246;1086;-40
2022/03/19 02:41:47;;;;;;;;;;;21.80;31.20;;;;;;484381;246;1055;-40
2022/03/19 02:43:48;;;;;;;;;;;21.70;31.10;;;;;;484780;246;1053;-40
2022/03/19 02:45:49;;;;;;;;;;;21.70;31.20;;;;;;484500;246;1907;-40
2022/03/19 02:48:00;;;;;;;;;;;21.70;31.20;;;;;;484374;246;1071;-40
2022/03/19 02:50:01;;;;;;;;;;;21.70;31.20;;;;;;484783;246;968;-39
2022/03/19 02:52:02;;;;;;;;;;;21.80;31.20;;;;;;484422;246;1104;-39
2022/03/19 02:54:04;;;;;;;;;;;21.80;31.20;;;;;;484307;246;1163;-39
2022/03/19 02:56:05;;;;;;;;;;;21.80;31.20;;;;;;484292;246;2191;-39
2022/03/19 02:58:06;;;;;;;;;;;21.80;31.10;;;;;;484398;246;1110;-39
2022/03/19 03:00:08;;;;;;;;;;;21.80;31.10;;;;;;484766;246;1085;-39
2022/03/19 03:02:09;;;;;;;;;;;21.70;31.10;;;;;;484704;246;1078;-39
2022/03/19 03:04:10;;;;;;;;;;;21.80;31.10;;;;;;484724;246;1083;-40
2022/03/19 03:06:12;;;;;;;;;;;21.80;31.10;;;;;;484687;246;1092;-40
2022/03/19 03:08:13;;;;;;;;;;;21.80;31.10;;;;;;484273;246;1353;-39
2022/03/19 03:10:14;;;;;;;;;;;21.80;31.20;;;;;;484465;246;1114;-40
2022/03/19 03:12:16;;;;;;;;;;;21.70;31.20;;;;;;484268;246;1345;-40
2022/03/19 03:14:19;;;;;;;;;;;21.80;31.10;;;;;;484786;246;1118;-40
2022/03/19 03:16:18;;;;;;;;;;;21.80;31.10;;;;;;484553;246;2311;-40
2022/03/19 03:18:20;;;;;;;;;;;21.80;31.10;;;;;;484751;246;1063;-39
2022/03/19 03:20:21;;;;;;;;;;;21.80;31.20;;;;;;484474;246;1060;-39
2022/03/19 03:22:22;;;;;;;;;;;21.80;31.20;;;;;;484615;246;1353;-40
2022/03/19 03:24:24;;;;;;;;;;;21.80;31.10;;;;;;484334;246;1388;-40
2022/03/19 03:26:25;;;;;;;;;;;21.80;31.00;;;;;;484223;246;2155;-39
2022/03/19 03:28:27;;;;;;;;;;;21.80;31.00;;;;;;484763;246;948;-40
2022/03/19 03:30:27;;;;;;;;;;;21.80;31.10;;;;;;484690;246;2382;-40
2022/03/19 03:32:29;;;;;;;;;;;21.80;31.00;;;;;;484739;246;1064;-40
2022/03/19 03:34:30;;;;;;;;;;;21.80;31.00;;;;;;484346;246;1171;-39
2022/03/19 03:36:32;;;;;;;;;;;21.80;31.00;;;;;;484311;246;2196;-40
2022/03/19 03:38:33;;;;;;;;;;;21.90;31.00;;;;;;484447;246;1310;-39
2022/03/19 03:40:34;;;;;;;;;;;21.80;31.00;;;;;;484745;246;1246;-40
2022/03/19 03:42:35;;;;;;;;;;;21.80;31.00;;;;;;484267;246;1067;-40
2022/03/19 03:44:39;;;;;;;;;;;21.80;31.00;;;;;;484771;246;1069;-39
2022/03/19 03:46:38;;;;;;;;;;;21.80;31.00;;;;;;484112;246;2100;-39
2022/03/19 03:48:39;;;;;;;;;;;21.90;31.00;;;;;;484784;246;1091;-39
2022/03/19 03:50:41;;;;;;;;;;;21.80;31.00;;;;;;484760;246;1273;-39
2022/03/19 03:52:42;;;;;;;;;;;21.80;31.00;;;;;;484451;246;1057;-39
2022/03/19 03:54:43;;;;;;;;;;;21.80;31.00;;;;;;484342;246;1366;-40
2022/03/19 03:56:45;;;;;;;;;;;21.90;31.00;;;;;;484215;246;2207;-39
2022/03/19 03:58:46;;;;;;;;;;;21.80;31.00;;;;;;484271;246;2188;-39
2022/03/19 04:00:47;;;;;;;;;;;21.80;31.00;;;;;;484760;246;1043;-39
2022/03/19 04:02:49;;;;;;;;;;;21.80;31.10;;;;;;484756;246;1136;-40
2022/03/19 04:04:50;;;;;;;;;;;21.80;31.10;;;;;;484485;246;1058;-39
2022/03/19 04:06:51;;;;;;;;;;;21.80;31.00;;;;;;484746;246;1336;-39
2022/03/19 04:08:52;;;;;;;;;;;21.80;31.00;;;;;;484517;246;1260;-40
2022/03/19 04:10:54;;;;;;;;;;;21.90;31.10;;;;;;484285;246;1119;-40
2022/03/19 04:12:55;;;;;;;;;;;21.90;31.00;;;;;;484290;246;1363;-39
2022/03/19 04:14:56;;;;;;;;;;;21.90;30.90;;;;;;484751;246;1056;-40
2022/03/19 04:16:59;;;;;;;;;;;21.90;31.00;;;;;;484220;246;2195;-40
2022/03/19 04:18:59;;;;;;;;;;;21.80;31.00;;;;;;484759;246;2437;-40
2022/03/19 04:21:01;;;;;;;;;;;21.80;31.00;;;;;;484344;246;1026;-40
2022/03/19 04:23:02;;;;;;;;;;;21.80;31.00;;;;;;484254;246;1116;-40
2022/03/19 04:25:03;;;;;;;;;;;21.80;31.00;;;;;;484347;246;1184;-39
2022/03/19 04:27:05;;;;;;;;;;;21.80;31.00;;;;;;484627;246;1265;-39
2022/03/19 04:29:06;;;;;;;;;;;21.80;31.00;;;;;;484506;246;1043;-39
2022/03/19 04:31:07;;;;;;;;;;;21.80;31.00;;;;;;484720;246;1261;-40
2022/03/19 04:33:08;;;;;;;;;;;21.80;31.00;;;;;;484679;246;1043;-40
2022/03/19 04:37:29;;;;;;;;;;;21.80;31.00;;;;;;484699;246;1161;-40
2022/03/19 04:39:30;;;;;;;;;;;21.80;31.00;;;;;;484320;246;1182;-39
2022/03/19 04:41:32;;;;;;;;;;;21.90;31.00;;;;;;484431;246;1174;-40
2022/03/19 04:43:33;;;;;;;;;;;21.90;31.00;;;;;;484738;246;1033;-39
2022/03/19 04:45:34;;;;;;;;;;;21.90;31.10;;;;;;484705;246;1296;-39
2022/03/19 04:47:36;;;;;;;;;;;21.80;31.00;;;;;;484199;246;1252;-40
2022/03/19 04:49:37;;;;;;;;;;;21.90;31.00;;;;;;484610;246;1127;-40
2022/03/19 04:51:38;;;;;;;;;;;21.80;31.00;;;;;;484211;245;1524;-40
2022/03/19 04:53:40;;;;;;;;;;;21.80;31.00;;;;;;484664;246;1177;-39
2022/03/19 04:55:41;;;;;;;;;;;21.80;31.00;;;;;;484558;246;2116;-40
2022/03/19 04:57:42;;;;;;;;;;;21.80;31.00;;;;;;484562;246;1193;-40
2022/03/19 04:59:44;;;;;;;;;;;21.80;31.00;;;;;;484327;246;1084;-40
2022/03/19 05:01:45;;;;;;;;;;;21.90;31.10;;;;;;484495;246;1360;-39
2022/03/19 05:03:46;;;;;;;;;;;21.80;31.00;;;;;;484739;246;1135;-39
2022/03/19 05:05:48;;;;;;;;;;;21.90;31.00;;;;;;484671;246;1140;-39
2022/03/19 05:07:49;;;;;;;;;;;21.90;31.00;;;;;;484588;246;1384;-39
2022/03/19 05:12:17;;;;;;;;;;;21.80;31.00;;;;;;476478;245;1305;-39
2022/03/19 05:14:18;;;;;;;;;;;21.80;31.00;;;;;;484535;246;1071;-39
2022/03/19 05:16:19;;;;;;;;;;;21.80;31.00;;;;;;484636;246;2183;-40
2022/03/19 05:18:21;;;;;;;;;;;21.80;31.00;;;;;;484289;246;1095;-39
2022/03/19 05:20:22;;;;;;;;;;;21.80;31.00;;;;;;484711;246;1073;-39
2022/03/19 05:22:23;;;;;;;;;;;21.80;31.00;;;;;;484471;246;1030;-40
2022/03/19 05:24:25;;;;;;;;;;;21.80;31.00;;;;;;484629;246;1309;-40
2022/03/19 05:26:26;;;;;;;;;;;21.80;31.00;;;;;;484718;246;1260;-40
2022/03/19 05:28:27;;;;;;;;;;;21.90;31.00;;;;;;484573;246;1347;-40
2022/03/19 05:30:29;;;;;;;;;;;21.80;31.00;;;;;;484328;246;986;-40
2022/03/19 05:32:30;;;;;;;;;;;21.80;31.00;;;;;;484280;246;1159;-39
2022/03/19 05:34:31;;;;;;;;;;;21.80;31.00;;;;;;484749;246;1199;-40
2022/03/19 05:36:33;;;;;;;;;;;21.80;31.00;;;;;;484698;246;2199;-39
2022/03/19 05:38:34;;;;;;;;;;;21.80;31.00;;;;;;484324;246;1051;-40
2022/03/19 05:40:36;;;;;;;;;;;21.80;31.00;;;;;;484400;246;1172;-40
2022/03/19 05:42:37;;;;;;;;;;;21.90;31.00;;;;;;484382;246;1040;-39
2022/03/19 05:44:38;;;;;;;;;;;21.90;30.90;;;;;;484709;246;949;-40
2022/03/19 05:46:39;;;;;;;;;;;21.90;31.00;;;;;;484701;246;1076;-40
2022/03/19 05:48:42;;;;;;;;;;;21.80;31.00;;;;;;484244;246;1139;-40
2022/03/19 05:50:42;;;;;;;;;;;21.90;31.00;;;;;;484582;246;1903;-40
2022/03/19 05:52:45;;;;;;;;;;;21.90;31.00;;;;;;484633;246;1087;-39
2022/03/19 05:54:47;;;;;;;;;;;21.90;31.00;;;;;;484651;246;1176;-40
2022/03/19 05:56:48;;;;;;;;;;;21.90;31.00;;;;;;484432;246;2153;-40
2022/03/19 05:58:49;;;;;;;;;;;21.90;31.00;;;;;;484769;246;1041;-39
2022/03/19 06:00:50;;;;;;;;;;;21.80;31.00;;;;;;484474;246;1039;-39
2022/03/19 06:02:52;;;;;;;;;;;21.80;31.00;;;;;;484640;246;1065;-39
2022/03/19 06:04:53;;;;;;;;;;;21.90;31.00;;;;;;484329;246;1055;-40
2022/03/19 06:06:55;;;;;;;;;;;21.80;31.00;;;;;;484570;246;1056;-39
2022/03/19 06:08:56;;;;;;;;;;;21.80;31.00;;;;;;484261;246;1112;-40
2022/03/19 06:10:58;;;;;;;;;;;21.90;30.90;;;;;;484351;246;1155;-39
2022/03/19 06:12:58;;;;;;;;;;;21.90;30.90;;;;;;484629;246;2457;-39
2022/03/19 06:15:00;;;;;;;;;;;21.90;31.00;;;;;;484775;246;977;-40
2022/03/19 06:17:01;;;;;;;;;;;21.80;31.00;;;;;;484388;246;2187;-40
2022/03/19 06:19:02;;;;;;;;;;;21.80;30.90;;;;;;484734;246;1142;-40
2022/03/19 06:21:04;;;;;;;;;;;21.90;31.00;;;;;;484742;246;1092;-40
2022/03/19 06:23:05;;;;;;;;;;;21.90;30.90;;;;;;484313;246;1033;-39
2022/03/19 06:25:06;;;;;;;;;;;21.80;30.90;;;;;;484309;246;1210;-40
2022/03/19 06:27:08;;;;;;;;;;;21.90;30.90;;;;;;484664;246;1131;-39
2022/03/19 06:29:09;;;;;;;;;;;21.90;30.90;;;;;;484757;246;966;-39
2022/03/19 06:31:10;;;;;;;;;;;21.90;30.90;;;;;;484487;246;1106;-40
2022/03/19 06:33:12;;;;;;;;;;;21.90;30.90;;;;;;484425;246;1049;-40
2022/03/19 06:37:19;;;;;;;;;;;21.90;30.90;;;;;;484253;246;1081;-40
2022/03/19 06:37:22;;;;;;;;;;;21.90;30.90;;;;;;483234;246;2187;-39
2022/03/19 06:39:23;;;;;;;;;;;21.90;30.90;;;;;;484768;246;1069;-40
2022/03/19 06:41:24;;;;;;;;;;;21.90;30.90;;;;;;484325;246;1188;-39
2022/03/19 06:43:25;;;;;;;;;;;21.90;30.90;;;;;;484625;246;1334;-39
2022/03/19 06:45:27;;;;;;;;;;;21.90;30.90;;;;;;484371;246;1102;-40
2022/03/19 06:47:30;;;;;;;;;;;21.90;30.90;;;;;;484551;246;1169;-40
2022/03/19 06:49:30;;;;;;;;;;;21.90;30.90;;;;;;484663;246;1757;-40
2022/03/19 06:51:31;;;;;;;;;;;21.90;30.90;;;;;;484524;246;1202;-40
2022/03/19 06:53:32;;;;;;;;;;;21.80;30.90;;;;;;484318;246;1253;-39
2022/03/19 06:55:34;;;;;;;;;;;21.80;31.00;;;;;;484536;246;1143;-40
2022/03/19 06:57:35;;;;;;;;;;;21.80;31.00;;;;;;484215;246;2188;-39
2022/03/19 06:59:36;;;;;;;;;;;21.80;31.00;;;;;;484285;246;1085;-40
2022/03/19 07:01:37;;;;;;;;;;;21.80;30.90;;;;;;484396;246;1360;-40
2022/03/19 07:03:39;;;;;;;;;;;21.80;30.90;;;;;;484264;246;1046;-40
2022/03/19 07:05:40;;;;;;;;;;;21.80;31.00;;;;;;484358;246;1129;-39
2022/03/19 07:07:41;;;;;;;;;;;21.90;30.90;;;;;;484640;246;1077;-40
2022/03/19 07:09:43;;;;;;;;;;;21.90;30.80;;;;;;484302;246;1118;-40
2022/03/19 07:11:44;;;;;;;;;;;21.90;30.80;;;;;;484348;246;1225;-40
2022/03/19 07:13:45;;;;;;;;;;;21.90;30.90;;;;;;484519;246;1032;-40
2022/03/19 07:15:47;;;;;;;;;;;21.80;30.90;;;;;;484634;246;1021;-39
2022/03/19 07:17:50;;;;;;;;;;;21.90;30.90;;;;;;484688;246;2204;-39
2022/03/19 07:19:50;;;;;;;;;;;21.90;30.90;;;;;;484216;246;2448;-40
2022/03/19 07:21:51;;;;;;;;;;;21.90;31.00;;;;;;484458;246;1199;-40
2022/03/19 07:23:53;;;;;;;;;;;21.90;31.00;;;;;;484730;246;1104;-40
2022/03/19 07:25:54;;;;;;;;;;;21.90;30.90;;;;;;484575;246;1383;-39
2022/03/19 07:27:55;;;;;;;;;;;21.90;30.90;;;;;;484545;246;1191;-39
2022/03/19 07:29:56;;;;;;;;;;;21.90;30.90;;;;;;484764;246;1061;-39
2022/03/19 07:31:58;;;;;;;;;;;21.90;30.90;;;;;;484273;246;1151;-40
2022/03/19 07:33:59;;;;;;;;;;;21.80;30.90;;;;;;484557;246;1057;-40
2022/03/19 07:36:01;;;;;;;;;;;21.90;31.00;;;;;;484264;246;1194;-39
2022/03/19 07:38:03;;;;;;;;;;;21.80;31.00;;;;;;484723;246;2191;-40
2022/03/19 07:40:04;;;;;;;;;;;21.90;31.00;;;;;;484726;246;2360;-39
2022/03/19 07:42:05;;;;;;;;;;;21.80;31.00;;;;;;484207;246;1276;-39
2022/03/19 07:44:06;;;;;;;;;;;21.80;31.00;;;;;;484341;246;1104;-40
2022/03/19 07:46:08;;;;;;;;;;;21.80;31.00;;;;;;484744;246;1301;-40
2022/03/19 07:48:09;;;;;;;;;;;21.80;31.00;;;;;;484765;246;1059;-40
2022/03/19 07:50:10;;;;;;;;;;;21.80;30.90;;;;;;484542;246;1055;-40
2022/03/19 07:52:12;;;;;;;;;;;21.80;31.00;;;;;;484243;246;1221;-40
2022/03/19 07:54:13;;;;;;;;;;;21.80;31.00;;;;;;484284;246;1282;-39
2022/03/19 07:56:14;;;;;;;;;;;21.80;31.00;;;;;;484351;246;1357;-40
2022/03/19 07:58:17;;;;;;;;;;;21.80;31.00;;;;;;484437;246;2125;-40
2022/03/19 08:00:17;;;;;;;;;;;21.90;31.00;;;;;;484554;246;2340;-40
2022/03/19 08:02:20;;;;;;;;;;;21.80;30.90;;;;;;484247;246;1066;-40
2022/03/19 08:04:20;;;;;;;;;;;21.90;30.90;;;;;;484599;246;2277;-40
2022/03/19 08:06:21;;;;;;;;;;;21.80;30.90;;;;;;484639;246;1085;-40
2022/03/19 08:08:22;;;;;;;;;;;21.90;31.00;;;;;;484303;246;1076;-40
2022/03/19 08:10:24;;;;;;;;;;;21.90;30.90;;;;;;484227;246;1095;-39
2022/03/19 08:12:26;;;;;;;;;;;21.90;30.90;;;;;;484282;246;1192;-40
2022/03/19 08:14:29;;;;;;;;;;;21.90;30.90;;;;;;484748;246;1591;-39
2022/03/19 08:16:28;;;;;;;;;;;21.90;30.90;;;;;;484153;246;2184;-40
2022/03/19 08:18:30;;;;;;;;;;;21.90;31.00;;;;;;484746;246;1252;-40
2022/03/19 08:20:31;;;;;;;;;;;21.80;30.90;;;;;;484651;246;1457;-39
2022/03/19 08:22:33;;;;;;;;;;;21.90;30.90;;;;;;484191;246;1296;-40
2022/03/19 08:24:34;;;;;;;;;;;21.80;30.90;;;;;;484544;246;953;-39
2022/03/19 08:26:35;;;;;;;;;;;21.80;31.00;;;;;;484247;246;1288;-40
2022/03/19 08:28:37;;;;;;;;;;;21.80;31.00;;;;;;484369;246;1032;-40
2022/03/19 08:30:38;;;;;;;;;;;21.80;31.00;;;;;;484554;246;1322;-40
2022/03/19 08:32:39;;;;;;;;;;;21.80;30.90;;;;;;484681;246;1238;-40
2022/03/19 08:34:42;;;;;;;;;;;21.90;31.00;;;;;;484296;246;1042;-40
2022/03/19 08:36:42;;;;;;;;;;;21.80;30.90;;;;;;484103;246;2601;-40
2022/03/19 08:41:03;;;;;;;;;;;21.90;30.90;;;;;;484722;246;1184;-40
2022/03/19 08:43:04;;;;;;;;;;;21.80;30.90;;;;;;484283;246;2115;-40
2022/03/19 08:45:05;;;;;;;;;;;21.80;30.90;;;;;;484782;246;949;-40
2022/03/19 08:47:07;;;;;;;;;;;21.80;30.90;;;;;;484471;246;1187;-40
2022/03/19 08:49:08;;;;;;;;;;;21.80;31.00;;;;;;484751;246;1006;-40
2022/03/19 08:53:29;;;;;;;;;;;21.90;31.00;;;;;;484554;246;1038;-40
2022/03/19 08:55:30;;;;;;;;;;;21.80;30.90;;;;;;484571;246;1351;-39
2022/03/19 08:57:31;;;;;;;;;;;21.80;31.00;;;;;;484390;246;2188;-40
2022/03/19 08:59:33;;;;;;;;;;;21.80;31.00;;;;;;484665;246;1187;-39
2022/03/19 09:01:34;;;;;;;;;;;21.80;30.90;;;;;;484255;246;1690;-40
2022/03/19 09:03:35;;;;;;;;;;;21.80;30.90;;;;;;484299;246;1091;-40
2022/03/19 09:05:37;;;;;;;;;;;21.90;30.90;;;;;;484617;246;1141;-39
2022/03/19 09:07:38;;;;;;;;;;;21.80;30.90;;;;;;484216;246;1154;-40
2022/03/19 09:09:39;;;;;;;;;;;21.80;30.90;;;;;;484721;246;1095;-39
2022/03/19 09:11:41;;;;;;;;;;;21.80;30.90;;;;;;484575;246;1314;-40
2022/03/19 09:13:43;;;;;;;;;;;21.80;30.90;;;;;;484554;246;974;-40
2022/03/19 09:15:43;;;;;;;;;;;21.80;31.00;;;;;;484256;246;2265;-39
2022/03/19 09:17:44;;;;;;;;;;;21.80;30.90;;;;;;484424;246;2176;-40
2022/03/19 09:19:46;;;;;;;;;;;21.80;30.90;;;;;;484327;246;1072;-40
2022/03/19 09:21:47;;;;;;;;;;;21.80;30.90;;;;;;484732;246;1129;-39
2022/03/19 09:23:49;;;;;;;;;;;21.80;31.00;;;;;;484235;246;1236;-40
2022/03/19 09:25:50;;;;;;;;;;;21.80;30.90;;;;;;484336;246;1337;-40
2022/03/19 09:27:52;;;;;;;;;;;21.80;30.80;;;;;;484464;246;1123;-40
2022/03/19 09:29:53;;;;;;;;;;;21.80;30.90;;;;;;484729;246;1047;-39
2022/03/19 09:31:54;;;;;;;;;;;21.90;30.90;;;;;;484306;246;1430;-40
2022/03/19 09:33:55;;;;;;;;;;;21.80;30.80;;;;;;484401;246;1057;-40
2022/03/19 09:35:57;;;;;;;;;;;21.80;30.90;;;;;;484421;246;1247;-40
2022/03/19 09:37:58;;;;;;;;;;;21.80;30.90;;;;;;484719;246;2192;-40
2022/03/19 09:39:59;;;;;;;;;;;21.80;30.90;;;;;;484743;246;1236;-39
2022/03/19 09:42:01;;;;;;;;;;;21.80;30.80;;;;;;484500;246;1357;-40
2022/03/19 09:44:02;;;;;;;;;;;21.90;30.80;;;;;;484258;246;1019;-40
2022/03/19 09:46:03;;;;;;;;;;;21.90;30.80;;;;;;484647;246;1069;-39
2022/03/19 09:48:05;;;;;;;;;;;21.80;30.70;;;;;;484307;246;1046;-39
2022/03/19 09:50:06;;;;;;;;;;;21.80;30.80;;;;;;484431;246;1046;-40
2022/03/19 09:52:07;;;;;;;;;;;21.90;30.80;;;;;;484209;246;1095;-40
2022/03/19 09:54:09;;;;;;;;;;;21.80;30.70;;;;;;484694;246;1066;-39
2022/03/19 09:56:11;;;;;;;;;;;21.80;30.80;;;;;;484239;246;1072;-40
2022/03/19 09:58:13;;;;;;;;;;;21.80;30.80;;;;;;484433;246;2148;-40
2022/03/19 10:00:13;;;;;;;;;;;21.90;30.80;;;;;;484280;246;2222;-39
2022/03/19 10:02:15;;;;;;;;;;;21.80;30.80;;;;;;484274;246;1081;-39
2022/03/19 10:04:18;;;;;;;;;;;21.80;30.80;;;;;;484356;246;1069;-39
2022/03/19 10:08:39;;;;;;;;;;;21.80;30.80;;;;;;484241;246;1008;-40
2022/03/19 10:10:40;;;;;;;;;;;21.80;30.80;;;;;;484183;246;2423;-40
2022/03/19 10:12:40;;;;;;;;;;;21.80;30.70;;;;;;484496;245;2500;-39
2022/03/19 10:14:41;;;;;;;;;;;21.80;30.70;;;;;;484305;246;1066;-39
2022/03/19 10:16:42;;;;;;;;;;;21.80;30.70;;;;;;484254;246;1039;-40
2022/03/19 10:18:44;;;;;;;;;;;21.80;30.70;;;;;;484252;246;2191;-40
2022/03/19 10:20:45;;;;;;;;;;;21.80;30.70;;;;;;484714;246;1067;-40
2022/03/19 10:22:47;;;;;;;;;;;21.80;30.70;;;;;;484685;246;1192;-40
2022/03/19 10:24:48;;;;;;;;;;;21.80;30.70;;;;;;484656;246;1076;-40
2022/03/19 10:26:49;;;;;;;;;;;21.80;30.70;;;;;;484516;245;1321;-40
2022/03/19 10:28:51;;;;;;;;;;;21.80;30.70;;;;;;484336;246;1270;-39
2022/03/19 10:30:52;;;;;;;;;;;21.70;30.70;;;;;;484446;246;1103;-39
2022/03/19 10:32:53;;;;;;;;;;;21.80;30.70;;;;;;484726;246;1069;-40
2022/03/19 10:34:55;;;;;;;;;;;21.80;30.70;;;;;;484734;246;992;-39
2022/03/19 10:36:56;;;;;;;;;;;21.80;30.60;;;;;;484297;246;1092;-40
2022/03/19 10:38:57;;;;;;;;;;;21.80;30.60;;;;;;484274;246;2180;-39
2022/03/19 10:40:58;;;;;;;;;;;21.80;30.60;;;;;;484262;246;1036;-40
2022/03/19 10:43:00;;;;;;;;;;;21.80;30.70;;;;;;484286;246;1215;-39
2022/03/19 10:45:01;;;;;;;;;;;21.80;30.70;;;;;;484747;246;989;-39
2022/03/19 10:47:04;;;;;;;;;;;21.80;30.70;;;;;;484657;246;1109;-40
2022/03/19 10:49:04;;;;;;;;;;;21.80;30.60;;;;;;484670;246;2295;-40
2022/03/19 10:51:05;;;;;;;;;;;21.80;30.60;;;;;;484708;246;1414;-40
2022/03/19 10:53:06;;;;;;;;;;;21.70;30.60;;;;;;484452;246;1101;-40
2022/03/19 10:55:08;;;;;;;;;;;21.80;30.60;;;;;;484620;246;1072;-39
2022/03/19 10:57:09;;;;;;;;;;;21.80;30.60;;;;;;484269;246;1295;-40
2022/03/19 10:59:10;;;;;;;;;;;21.80;30.60;;;;;;484384;246;2190;-40
2022/03/19 11:01:13;;;;;;;;;;;21.80;30.60;;;;;;484611;246;1197;-40
2022/03/19 11:03:14;;;;;;;;;;;21.80;30.60;;;;;;484780;246;1375;-40
2022/03/19 11:05:15;;;;;;;;;;;21.80;30.60;;;;;;484356;246;1038;-40
2022/03/19 11:07:17;;;;;;;;;;;21.80;30.50;;;;;;484711;246;1322;-40
2022/03/19 11:09:18;;;;;;;;;;;21.80;30.60;;;;;;484787;246;1059;-40
2022/03/19 11:11:19;;;;;;;;;;;21.80;30.60;;;;;;484452;246;1295;-39
2022/03/19 11:13:21;;;;;;;;;;;21.80;30.50;;;;;;484445;246;1164;-39
2022/03/19 11:15:22;;;;;;;;;;;21.80;30.50;;;;;;484317;246;1163;-40
2022/03/19 11:17:23;;;;;;;;;;;21.80;30.50;;;;;;484563;246;1053;-40
2022/03/19 11:19:25;;;;;;;;;;;21.80;30.50;;;;;;484752;246;1046;-40
2022/03/19 11:21:26;;;;;;;;;;;21.80;30.50;;;;;;484257;246;1045;-40
2022/03/19 11:23:27;;;;;;;;;;;21.80;30.50;;;;;;484424;246;1058;-40
2022/03/19 11:25:30;;;;;;;;;;;21.80;30.50;;;;;;484236;246;1105;-40
2022/03/19 11:27:30;;;;;;;;;;;21.80;30.50;;;;;;484180;246;1835;-40
2022/03/19 11:29:31;;;;;;;;;;;21.80;30.50;;;;;;484274;246;1061;-40
2022/03/19 11:31:33;;;;;;;;;;;21.80;30.50;;;;;;484714;246;1074;-39
2022/03/19 11:33:34;;;;;;;;;;;21.80;30.50;;;;;;484729;246;1049;-40
2022/03/19 11:35:35;;;;;;;;;;;21.80;30.50;;;;;;484702;246;1011;-39
2022/03/19 11:37:37;;;;;;;;;;;21.80;30.50;;;;;;484697;246;2191;-39
2022/03/19 11:39:38;;;;;;;;;;;21.80;30.50;;;;;;484285;246;1040;-40
2022/03/19 11:41:39;;;;;;;;;;;21.80;30.40;;;;;;484582;246;1101;-39
2022/03/19 11:43:41;;;;;;;;;;;21.80;30.50;;;;;;484267;246;1299;-39
2022/03/19 11:45:42;;;;;;;;;;;21.80;30.40;;;;;;484394;246;1072;-40
2022/03/19 11:47:44;;;;;;;;;;;21.80;30.50;;;;;;484721;246;1014;-39
2022/03/19 11:49:45;;;;;;;;;;;21.80;30.50;;;;;;484751;246;1199;-39
2022/03/19 11:51:46;;;;;;;;;;;21.80;30.50;;;;;;484229;246;1178;-39
2022/03/19 11:53:48;;;;;;;;;;;21.80;30.50;;;;;;484378;246;1025;-39
2022/03/19 11:55:49;;;;;;;;;;;21.80;30.50;;;;;;484606;246;1051;-40
2022/03/19 11:57:55;;;;;;;;;;;21.80;30.40;;;;;;484661;246;2116;-39
2022/03/19 11:59:52;;;;;;;;;;;21.80;30.40;;;;;;484112;246;2234;-39
2022/03/19 12:01:55;;;;;;;;;;;21.80;30.30;;;;;;484191;246;1231;-40
2022/03/19 12:03:55;;;;;;;;;;;21.80;30.40;;;;;;484189;246;2283;-40
2022/03/19 12:05:56;;;;;;;;;;;21.80;30.40;;;;;;484495;246;1188;-39
2022/03/19 12:07:58;;;;;;;;;;;21.80;30.40;;;;;;484228;246;1061;-40
2022/03/19 12:10:00;;;;;;;;;;;21.80;30.40;;;;;;484725;246;1032;-40
2022/03/19 12:12:01;;;;;;;;;;;21.80;30.40;;;;;;484330;246;1230;-40